sensor_id;sensor_type;location;lat;lon;timestamp;pressure;altitude;pressure_sealevel;temperature;humidity
36538;BME280;22545;48.892;9.138;2022-07-23T00:00:24;98021.63;;;24.77;100.00
36538;BME280;22545;48.892;9.138;2022-07-23T00:02:49;98025.53;;;24.72;100.00
36538;BME280;22545;48.892;9.138;2022-07-23T00:05:14;98009.75;;;24.72;100.00
36538;BME280;22545;48.892;9.138;2022-07-23T00:07:40;98012.41;;;24.63;99.87
36538;BME280;22545;48.892;9.138;2022-07-23T00:10:06;97993.50;;;24.59;100.00
36538;BME280;22545;48.892;9.138;2022-07-23T00:12:31;97992.53;;;24.60;99.54
36538;BME280;22545;48.892;9.138;2022-07-23T00:14:56;98008.16;;;24.62;98.49
36538;BME280;22545;48.892;9.138;2022-07-23T00:17:22;98006.38;;;24.52;98.47
36538;BME280;22545;48.892;9.138;2022-07-23T00:19:47;98001.00;;;24.44;98.81
36538;BME280;22545;48.892;9.138;2022-07-23T00:22:12;97993.28;;;24.43;99.62
36538;BME280;22545;48.892;9.138;2022-07-23T00:24:37;97990.56;;;24.34;99.65
36538;BME280;22545;48.892;9.138;2022-07-23T00:27:03;97988.19;;;24.31;100.00
36538;BME280;22545;48.892;9.138;2022-07-23T00:29:28;97987.09;;;24.34;100.00
36538;BME280;22545;48.892;9.138;2022-07-23T00:31:54;97976.06;;;24.30;100.00
36538;BME280;22545;48.892;9.138;2022-07-23T00:34:19;97971.09;;;24.27;100.00
36538;BME280;22545;48.892;9.138;2022-07-23T00:36:44;97975.25;;;24.20;100.00
36538;BME280;22545;48.892;9.138;2022-07-23T00:39:09;97981.34;;;24.20;100.00
36538;BME280;22545;48.892;9.138;2022-07-23T00:41:34;97973.06;;;24.15;100.00
36538;BME280;22545;48.892;9.138;2022-07-23T00:46:47;97971.31;;;24.06;100.00
36538;BME280;22545;48.892;9.138;2022-07-23T00:49:13;97975.06;;;24.03;100.00
36538;BME280;22545;48.892;9.138;2022-07-23T00:51:39;97982.28;;;24.01;100.00
36538;BME280;22545;48.892;9.138;2022-07-23T00:54:04;97974.38;;;24.01;100.00
36538;BME280;22545;48.892;9.138;2022-07-23T00:56:30;97965.94;;;23.98;100.00
36538;BME280;22545;48.892;9.138;2022-07-23T00:58:55;97969.28;;;24.00;100.00
36538;BME280;22545;48.892;9.138;2022-07-23T01:01:21;97967.09;;;23.95;100.00
36538;BME280;22545;48.892;9.138;2022-07-23T01:03:46;97977.31;;;23.89;100.00
36538;BME280;22545;48.892;9.138;2022-07-23T01:06:12;97972.22;;;23.87;100.00
36538;BME280;22545;48.892;9.138;2022-07-23T01:08:37;97969.47;;;23.69;100.00
36538;BME280;22545;48.892;9.138;2022-07-23T01:11:02;97961.06;;;23.65;100.00
36538;BME280;22545;48.892;9.138;2022-07-23T01:13:29;97977.88;;;23.82;100.00
36538;BME280;22545;48.892;9.138;2022-07-23T01:15:54;97978.44;;;23.86;100.00
36538;BME280;22545;48.892;9.138;2022-07-23T01:18:19;97967.78;;;23.88;100.00
36538;BME280;22545;48.892;9.138;2022-07-23T01:20:44;97965.97;;;23.78;100.00
36538;BME280;22545;48.892;9.138;2022-07-23T01:23:09;97973.72;;;23.90;100.00
36538;BME280;22545;48.892;9.138;2022-07-23T01:25:35;97963.09;;;23.91;100.00
36538;BME280;22545;48.892;9.138;2022-07-23T01:28:00;97956.81;;;24.02;100.00
36538;BME280;22545;48.892;9.138;2022-07-23T01:30:25;97966.44;;;24.11;100.00
36538;BME280;22545;48.892;9.138;2022-07-23T01:32:50;97971.66;;;23.83;100.00
36538;BME280;22545;48.892;9.138;2022-07-23T01:35:16;97951.06;;;23.79;100.00
36538;BME280;22545;48.892;9.138;2022-07-23T01:37:41;97941.00;;;23.74;100.00
36538;BME280;22545;48.892;9.138;2022-07-23T01:40:06;97938.38;;;23.74;100.00
36538;BME280;22545;48.892;9.138;2022-07-23T01:42:32;97940.06;;;23.65;100.00
36538;BME280;22545;48.892;9.138;2022-07-23T01:44:57;97947.94;;;23.65;100.00
36538;BME280;22545;48.892;9.138;2022-07-23T01:47:22;97949.47;;;23.58;100.00
36538;BME280;22545;48.892;9.138;2022-07-23T01:49:47;97954.31;;;23.53;100.00
36538;BME280;22545;48.892;9.138;2022-07-23T01:52:12;97960.25;;;23.55;100.00
36538;BME280;22545;48.892;9.138;2022-07-23T01:54:38;97952.81;;;23.50;100.00
36538;BME280;22545;48.892;9.138;2022-07-23T01:57:04;97960.25;;;23.45;100.00
36538;BME280;22545;48.892;9.138;2022-07-23T01:59:29;97968.59;;;23.31;100.00
36538;BME280;22545;48.892;9.138;2022-07-23T02:01:55;97981.03;;;23.19;100.00
36538;BME280;22545;48.892;9.138;2022-07-23T02:04:21;97972.19;;;23.10;100.00
36538;BME280;22545;48.892;9.138;2022-07-23T02:06:46;97969.00;;;23.17;100.00
36538;BME280;22545;48.892;9.138;2022-07-23T02:09:12;97963.19;;;23.32;100.00
36538;BME280;22545;48.892;9.138;2022-07-23T02:11:37;97950.56;;;23.65;100.00
36538;BME280;22545;48.892;9.138;2022-07-23T02:14:03;97947.81;;;23.57;100.00
36538;BME280;22545;48.892;9.138;2022-07-23T02:16:28;97952.09;;;23.58;100.00
36538;BME280;22545;48.892;9.138;2022-07-23T02:18:54;97977.25;;;23.51;100.00
36538;BME280;22545;48.892;9.138;2022-07-23T02:21:19;97993.41;;;23.46;100.00
36538;BME280;22545;48.892;9.138;2022-07-23T02:23:45;98007.50;;;23.45;100.00
36538;BME280;22545;48.892;9.138;2022-07-23T02:26:10;98010.69;;;23.20;100.00
36538;BME280;22545;48.892;9.138;2022-07-23T02:28:35;97995.66;;;23.12;100.00
36538;BME280;22545;48.892;9.138;2022-07-23T02:31:00;97992.44;;;23.08;100.00
36538;BME280;22545;48.892;9.138;2022-07-23T02:33:26;98007.63;;;23.05;100.00
36538;BME280;22545;48.892;9.138;2022-07-23T02:35:51;98025.50;;;23.11;100.00
36538;BME280;22545;48.892;9.138;2022-07-23T02:38:16;98024.38;;;23.13;100.00
36538;BME280;22545;48.892;9.138;2022-07-23T02:40:41;98044.97;;;23.28;100.00
36538;BME280;22545;48.892;9.138;2022-07-23T02:43:07;98040.81;;;23.35;100.00
36538;BME280;22545;48.892;9.138;2022-07-23T02:45:32;98043.28;;;23.27;100.00
36538;BME280;22545;48.892;9.138;2022-07-23T02:47:57;98043.94;;;23.00;100.00
36538;BME280;22545;48.892;9.138;2022-07-23T02:50:22;98045.78;;;22.68;100.00
36538;BME280;22545;48.892;9.138;2022-07-23T02:52:48;98043.34;;;22.76;100.00
36538;BME280;22545;48.892;9.138;2022-07-23T02:55:13;98047.78;;;22.86;100.00
36538;BME280;22545;48.892;9.138;2022-07-23T02:57:38;98059.34;;;22.73;100.00
36538;BME280;22545;48.892;9.138;2022-07-23T03:00:04;98064.88;;;22.39;100.00
36538;BME280;22545;48.892;9.138;2022-07-23T03:02:30;98065.91;;;22.27;100.00
36538;BME280;22545;48.892;9.138;2022-07-23T03:04:55;98076.50;;;22.25;100.00
36538;BME280;22545;48.892;9.138;2022-07-23T03:07:21;98076.50;;;22.25;100.00
36538;BME280;22545;48.892;9.138;2022-07-23T03:09:46;98072.47;;;22.42;100.00
36538;BME280;22545;48.892;9.138;2022-07-23T03:12:11;98074.88;;;22.55;100.00
36538;BME280;22545;48.892;9.138;2022-07-23T03:14:36;98066.75;;;22.58;100.00
36538;BME280;22545;48.892;9.138;2022-07-23T03:17:02;98065.03;;;22.48;100.00
36538;BME280;22545;48.892;9.138;2022-07-23T03:19:27;98064.47;;;22.44;100.00
36538;BME280;22545;48.892;9.138;2022-07-23T03:21:52;98065.69;;;22.40;100.00
36538;BME280;22545;48.892;9.138;2022-07-23T03:24:17;98067.53;;;22.28;100.00
36538;BME280;22545;48.892;9.138;2022-07-23T03:26:43;98060.97;;;22.34;100.00
36538;BME280;22545;48.892;9.138;2022-07-23T03:29:08;98056.19;;;22.39;100.00
36538;BME280;22545;48.892;9.138;2022-07-23T03:31:34;98058.88;;;22.58;100.00
36538;BME280;22545;48.892;9.138;2022-07-23T03:33:59;98057.75;;;22.51;100.00
36538;BME280;22545;48.892;9.138;2022-07-23T03:36:24;98062.66;;;22.35;100.00
36538;BME280;22545;48.892;9.138;2022-07-23T03:38:50;98068.47;;;22.17;100.00
36538;BME280;22545;48.892;9.138;2022-07-23T03:41:16;98061.59;;;22.16;100.00
36538;BME280;22545;48.892;9.138;2022-07-23T03:43:41;98067.78;;;22.15;100.00
36538;BME280;22545;48.892;9.138;2022-07-23T03:46:06;98069.56;;;22.15;100.00
36538;BME280;22545;48.892;9.138;2022-07-23T03:48:31;98075.09;;;21.90;100.00
36538;BME280;22545;48.892;9.138;2022-07-23T03:50:57;98074.69;;;21.95;100.00
36538;BME280;22545;48.892;9.138;2022-07-23T03:53:22;98081.84;;;21.93;100.00
36538;BME280;22545;48.892;9.138;2022-07-23T03:55:47;98075.09;;;21.69;100.00
36538;BME280;22545;48.892;9.138;2022-07-23T03:58:12;98074.75;;;21.84;100.00
36538;BME280;22545;48.892;9.138;2022-07-23T04:00:38;98078.06;;;21.86;100.00
36538;BME280;22545;48.892;9.138;2022-07-23T04:03:03;98088.75;;;21.94;100.00
36538;BME280;22545;48.892;9.138;2022-07-23T04:05:28;98086.25;;;21.92;100.00
36538;BME280;22545;48.892;9.138;2022-07-23T04:07:53;98079.28;;;21.82;100.00
36538;BME280;22545;48.892;9.138;2022-07-23T04:10:19;98083.06;;;21.89;100.00
36538;BME280;22545;48.892;9.138;2022-07-23T04:12:44;98079.09;;;21.95;100.00
36538;BME280;22545;48.892;9.138;2022-07-23T04:15:09;98085.09;;;21.85;100.00
36538;BME280;22545;48.892;9.138;2022-07-23T04:17:34;98085.59;;;21.79;100.00
36538;BME280;22545;48.892;9.138;2022-07-23T04:20:00;98084.19;;;21.75;100.00
36538;BME280;22545;48.892;9.138;2022-07-23T04:22:25;98082.44;;;21.76;100.00
36538;BME280;22545;48.892;9.138;2022-07-23T04:24:50;98083.69;;;21.81;100.00
36538;BME280;22545;48.892;9.138;2022-07-23T04:27:15;98085.34;;;21.82;100.00
36538;BME280;22545;48.892;9.138;2022-07-23T04:29:41;98084.19;;;21.96;100.00
36538;BME280;22545;48.892;9.138;2022-07-23T04:32:06;98087.00;;;22.04;100.00
36538;BME280;22545;48.892;9.138;2022-07-23T04:34:31;98088.03;;;22.13;100.00
36538;BME280;22545;48.892;9.138;2022-07-23T04:36:57;98077.97;;;22.39;100.00
36538;BME280;22545;48.892;9.138;2022-07-23T04:39:22;98086.41;;;22.43;100.00
36538;BME280;22545;48.892;9.138;2022-07-23T04:41:47;98083.25;;;21.97;100.00
36538;BME280;22545;48.892;9.138;2022-07-23T04:44:12;98084.84;;;21.88;100.00
36538;BME280;22545;48.892;9.138;2022-07-23T04:46:38;98086.88;;;21.85;100.00
36538;BME280;22545;48.892;9.138;2022-07-23T04:49:03;98085.16;;;21.74;100.00
36538;BME280;22545;48.892;9.138;2022-07-23T04:51:28;98095.19;;;21.90;100.00
36538;BME280;22545;48.892;9.138;2022-07-23T04:53:54;98105.91;;;21.87;100.00
36538;BME280;22545;48.892;9.138;2022-07-23T04:56:19;98114.16;;;21.82;100.00
36538;BME280;22545;48.892;9.138;2022-07-23T04:58:44;98108.47;;;21.77;100.00
36538;BME280;22545;48.892;9.138;2022-07-23T05:01:09;98110.63;;;21.72;100.00
36538;BME280;22545;48.892;9.138;2022-07-23T05:03:35;98101.63;;;21.86;100.00
36538;BME280;22545;48.892;9.138;2022-07-23T05:06:00;98111.91;;;21.99;100.00
36538;BME280;22545;48.892;9.138;2022-07-23T05:08:26;98108.66;;;22.06;100.00
36538;BME280;22545;48.892;9.138;2022-07-23T05:10:51;98102.38;;;22.19;100.00
36538;BME280;22545;48.892;9.138;2022-07-23T05:13:16;98106.50;;;22.33;100.00
36538;BME280;22545;48.892;9.138;2022-07-23T05:15:44;98107.16;;;22.56;100.00
36538;BME280;22545;48.892;9.138;2022-07-23T05:18:09;98109.91;;;22.95;100.00
36538;BME280;22545;48.892;9.138;2022-07-23T05:20:35;98115.16;;;23.05;100.00
36538;BME280;22545;48.892;9.138;2022-07-23T05:23:00;98114.41;;;23.14;100.00
36538;BME280;22545;48.892;9.138;2022-07-23T05:25:25;98118.28;;;23.39;100.00
36538;BME280;22545;48.892;9.138;2022-07-23T05:27:50;98125.72;;;23.24;100.00
36538;BME280;22545;48.892;9.138;2022-07-23T05:30:16;98119.69;;;23.43;100.00
36538;BME280;22545;48.892;9.138;2022-07-23T05:32:41;98117.34;;;23.40;100.00
36538;BME280;22545;48.892;9.138;2022-07-23T05:35:06;98132.63;;;23.15;100.00
36538;BME280;22545;48.892;9.138;2022-07-23T05:37:32;98138.34;;;23.00;100.00
36538;BME280;22545;48.892;9.138;2022-07-23T05:40:01;98136.06;;;23.16;100.00
36538;BME280;22545;48.892;9.138;2022-07-23T05:42:27;98144.22;;;23.23;100.00
36538;BME280;22545;48.892;9.138;2022-07-23T05:44:52;98130.44;;;23.21;100.00
36538;BME280;22545;48.892;9.138;2022-07-23T05:47:17;98130.44;;;23.40;100.00
36538;BME280;22545;48.892;9.138;2022-07-23T05:49:42;98146.31;;;23.19;100.00
36538;BME280;22545;48.892;9.138;2022-07-23T05:52:08;98164.63;;;23.09;100.00
36538;BME280;22545;48.892;9.138;2022-07-23T05:54:36;98179.50;;;23.09;100.00
36538;BME280;22545;48.892;9.138;2022-07-23T05:57:01;98181.47;;;22.76;100.00
36538;BME280;22545;48.892;9.138;2022-07-23T05:59:27;98180.78;;;22.74;100.00
36538;BME280;22545;48.892;9.138;2022-07-23T06:01:52;98183.47;;;22.62;100.00
36538;BME280;22545;48.892;9.138;2022-07-23T06:04:17;98176.97;;;22.57;100.00
36538;BME280;22545;48.892;9.138;2022-07-23T06:06:42;98172.47;;;22.26;100.00
36538;BME280;22545;48.892;9.138;2022-07-23T06:09:08;98178.25;;;22.41;100.00
36538;BME280;22545;48.892;9.138;2022-07-23T06:11:33;98180.66;;;22.54;100.00
36538;BME280;22545;48.892;9.138;2022-07-23T06:13:58;98167.63;;;22.43;100.00
36538;BME280;22545;48.892;9.138;2022-07-23T06:16:23;98168.06;;;22.27;100.00
36538;BME280;22545;48.892;9.138;2022-07-23T06:18:49;98152.22;;;22.28;100.00
36538;BME280;22545;48.892;9.138;2022-07-23T06:21:14;98142.53;;;22.40;100.00
36538;BME280;22545;48.892;9.138;2022-07-23T06:23:39;98143.31;;;22.62;100.00
36538;BME280;22545;48.892;9.138;2022-07-23T06:26:05;98147.56;;;22.94;100.00
36538;BME280;22545;48.892;9.138;2022-07-23T06:28:30;98147.28;;;23.38;100.00
36538;BME280;22545;48.892;9.138;2022-07-23T06:30:55;98158.81;;;23.85;100.00
36538;BME280;22545;48.892;9.138;2022-07-23T06:33:20;98168.22;;;24.08;100.00
36538;BME280;22545;48.892;9.138;2022-07-23T06:35:45;98177.59;;;24.10;100.00
36538;BME280;22545;48.892;9.138;2022-07-23T06:38:11;98174.84;;;24.02;100.00
36538;BME280;22545;48.892;9.138;2022-07-23T06:40:36;98170.03;;;23.97;100.00
36538;BME280;22545;48.892;9.138;2022-07-23T06:43:01;98177.63;;;23.91;100.00
36538;BME280;22545;48.892;9.138;2022-07-23T06:45:27;98178.25;;;23.63;100.00
36538;BME280;22545;48.892;9.138;2022-07-23T06:47:52;98188.91;;;23.62;100.00
36538;BME280;22545;48.892;9.138;2022-07-23T06:50:17;98193.72;;;23.37;100.00
36538;BME280;22545;48.892;9.138;2022-07-23T06:52:42;98204.44;;;23.14;100.00
36538;BME280;22545;48.892;9.138;2022-07-23T06:55:08;98220.63;;;22.98;100.00
36538;BME280;22545;48.892;9.138;2022-07-23T06:57:33;98237.66;;;22.83;100.00
36538;BME280;22545;48.892;9.138;2022-07-23T06:59:58;98237.81;;;22.60;100.00
36538;BME280;22545;48.892;9.138;2022-07-23T07:02:23;98242.38;;;22.37;100.00
36538;BME280;22545;48.892;9.138;2022-07-23T07:04:49;98248.22;;;22.30;100.00
36538;BME280;22545;48.892;9.138;2022-07-23T07:07:14;98239.22;;;22.11;100.00
36538;BME280;22545;48.892;9.138;2022-07-23T07:09:40;98231.72;;;21.85;100.00
36538;BME280;22545;48.892;9.138;2022-07-23T07:12:05;98222.06;;;21.86;100.00
36538;BME280;22545;48.892;9.138;2022-07-23T07:14:30;98215.31;;;21.72;100.00
36538;BME280;22545;48.892;9.138;2022-07-23T07:16:56;98217.97;;;21.49;100.00
36538;BME280;22545;48.892;9.138;2022-07-23T07:19:21;98197.44;;;21.22;100.00
36538;BME280;22545;48.892;9.138;2022-07-23T07:21:46;98181.44;;;20.93;100.00
36538;BME280;22545;48.892;9.138;2022-07-23T07:24:11;98193.44;;;20.84;100.00
36538;BME280;22545;48.892;9.138;2022-07-23T07:26:37;98199.00;;;20.91;100.00
36538;BME280;22545;48.892;9.138;2022-07-23T07:29:03;98192.22;;;20.99;100.00
36538;BME280;22545;48.892;9.138;2022-07-23T07:31:29;98199.38;;;20.97;100.00
36538;BME280;22545;48.892;9.138;2022-07-23T07:33:54;98202.81;;;21.09;100.00
36538;BME280;22545;48.892;9.138;2022-07-23T07:36:21;98209.69;;;21.21;100.00
36538;BME280;22545;48.892;9.138;2022-07-23T07:38:46;98214.38;;;22.26;100.00
36538;BME280;22545;48.892;9.138;2022-07-23T07:41:12;98211.03;;;22.88;100.00
36538;BME280;22545;48.892;9.138;2022-07-23T07:43:38;98222.97;;;23.02;100.00
36538;BME280;22545;48.892;9.138;2022-07-23T07:46:03;98232.13;;;23.38;100.00
36538;BME280;22545;48.892;9.138;2022-07-23T07:48:28;98232.47;;;23.84;100.00
36538;BME280;22545;48.892;9.138;2022-07-23T07:50:54;98231.84;;;23.51;100.00
36538;BME280;22545;48.892;9.138;2022-07-23T07:53:19;98232.13;;;23.38;100.00
36538;BME280;22545;48.892;9.138;2022-07-23T07:55:44;98231.88;;;23.10;100.00
36538;BME280;22545;48.892;9.138;2022-07-23T07:58:10;98244.47;;;22.95;100.00
36538;BME280;22545;48.892;9.138;2022-07-23T08:00:35;98256.03;;;22.83;100.00
36538;BME280;22545;48.892;9.138;2022-07-23T08:03:01;98250.91;;;22.60;100.00
36538;BME280;22545;48.892;9.138;2022-07-23T08:05:27;98245.88;;;22.15;100.00
36538;BME280;22545;48.892;9.138;2022-07-23T08:07:54;98242.88;;;22.31;100.00
36538;BME280;22545;48.892;9.138;2022-07-23T08:10:20;98244.69;;;22.19;100.00
36538;BME280;22545;48.892;9.138;2022-07-23T08:12:48;98247.69;;;22.15;100.00
36538;BME280;22545;48.892;9.138;2022-07-23T08:15:14;98242.97;;;21.97;100.00
36538;BME280;22545;48.892;9.138;2022-07-23T08:17:41;98236.94;;;21.85;100.00
36538;BME280;22545;48.892;9.138;2022-07-23T08:20:06;98243.47;;;21.25;100.00
36538;BME280;22545;48.892;9.138;2022-07-23T08:22:45;98247.59;;;21.04;100.00
36538;BME280;22545;48.892;9.138;2022-07-23T08:25:11;98257.75;;;21.87;100.00
36538;BME280;22545;48.892;9.138;2022-07-23T08:27:36;98247.81;;;23.28;100.00
36538;BME280;22545;48.892;9.138;2022-07-23T08:30:02;98244.56;;;23.46;100.00
36538;BME280;22545;48.892;9.138;2022-07-23T08:32:27;98236.47;;;22.66;100.00
36538;BME280;22545;48.892;9.138;2022-07-23T08:34:53;98241.38;;;22.59;100.00
36538;BME280;22545;48.892;9.138;2022-07-23T08:37:18;98245.16;;;22.67;100.00
36538;BME280;22545;48.892;9.138;2022-07-23T08:39:43;98254.69;;;22.89;100.00
36538;BME280;22545;48.892;9.138;2022-07-23T08:42:08;98253.06;;;22.97;100.00
36538;BME280;22545;48.892;9.138;2022-07-23T08:44:34;98260.41;;;23.04;100.00
36538;BME280;22545;48.892;9.138;2022-07-23T08:47:00;98267.03;;;23.79;100.00
36538;BME280;22545;48.892;9.138;2022-07-23T08:49:25;98258.00;;;24.99;100.00
36538;BME280;22545;48.892;9.138;2022-07-23T08:51:51;98251.31;;;25.42;100.00
36538;BME280;22545;48.892;9.138;2022-07-23T08:54:17;98244.13;;;24.30;100.00
36538;BME280;22545;48.892;9.138;2022-07-23T08:56:42;98242.19;;;24.23;100.00
36538;BME280;22545;48.892;9.138;2022-07-23T08:59:08;98242.38;;;25.53;100.00
36538;BME280;22545;48.892;9.138;2022-07-23T09:01:33;98257.66;;;27.36;100.00
36538;BME280;22545;48.892;9.138;2022-07-23T09:03:58;98236.84;;;28.58;97.03
36538;BME280;22545;48.892;9.138;2022-07-23T09:06:24;98236.84;;;29.71;86.67
36538;BME280;22545;48.892;9.138;2022-07-23T09:08:49;98246.94;;;29.98;81.33
36538;BME280;22545;48.892;9.138;2022-07-23T09:11:17;98241.84;;;30.35;76.67
36538;BME280;22545;48.892;9.138;2022-07-23T09:13:52;98245.69;;;29.07;83.91
36538;BME280;22545;48.892;9.138;2022-07-23T09:16:25;98247.63;;;28.40;91.90
36538;BME280;22545;48.892;9.138;2022-07-23T09:18:55;98258.72;;;28.11;94.72
36538;BME280;22545;48.892;9.138;2022-07-23T09:21:22;98254.41;;;28.76;87.55
36538;BME280;22545;48.892;9.138;2022-07-23T09:23:54;98254.84;;;28.96;80.90
36538;BME280;22545;48.892;9.138;2022-07-23T09:28:52;98239.94;;;28.95;81.76
36538;BME280;22545;48.892;9.138;2022-07-23T09:31:18;98236.50;;;29.97;68.28
36538;BME280;22545;48.892;9.138;2022-07-23T09:33:43;98235.25;;;32.02;59.54
36538;BME280;22545;48.892;9.138;2022-07-23T09:36:08;98238.22;;;31.04;63.56
36538;BME280;22545;48.892;9.138;2022-07-23T09:38:34;98242.28;;;31.88;57.55
36538;BME280;22545;48.892;9.138;2022-07-23T09:41:12;98246.06;;;31.42;60.50
36538;BME280;22545;48.892;9.138;2022-07-23T09:43:38;98242.41;;;31.80;59.77
36538;BME280;22545;48.892;9.138;2022-07-23T09:46:16;98240.97;;;33.05;58.62
36538;BME280;22545;48.892;9.138;2022-07-23T09:48:42;98244.06;;;33.57;49.91
36538;BME280;22545;48.892;9.138;2022-07-23T09:51:07;98236.16;;;33.84;51.54
36538;BME280;22545;48.892;9.138;2022-07-23T09:53:32;98240.81;;;33.13;52.25
36538;BME280;22545;48.892;9.138;2022-07-23T09:55:58;98241.72;;;33.89;54.92
36538;BME280;22545;48.892;9.138;2022-07-23T09:58:23;98240.09;;;33.88;56.59
36538;BME280;22545;48.892;9.138;2022-07-23T10:00:51;98236.56;;;32.62;61.40
36538;BME280;22545;48.892;9.138;2022-07-23T10:03:17;98234.41;;;31.58;66.21
36538;BME280;22545;48.892;9.138;2022-07-23T10:05:42;98243.09;;;31.00;68.12
36538;BME280;22545;48.892;9.138;2022-07-23T10:08:10;98235.59;;;31.40;63.05
36538;BME280;22545;48.892;9.138;2022-07-23T10:10:36;98240.28;;;31.38;64.33
36538;BME280;22545;48.892;9.138;2022-07-23T10:13:02;98239.09;;;31.41;65.54
36538;BME280;22545;48.892;9.138;2022-07-23T10:15:54;98237.91;;;31.44;65.95
36538;BME280;22545;48.892;9.138;2022-07-23T10:18:19;98236.91;;;32.24;60.63
36538;BME280;22545;48.892;9.138;2022-07-23T10:20:45;98240.81;;;31.85;65.07
36538;BME280;22545;48.892;9.138;2022-07-23T10:23:21;98242.91;;;31.53;63.71
36538;BME280;22545;48.892;9.138;2022-07-23T10:25:52;98239.22;;;31.18;67.74
36538;BME280;22545;48.892;9.138;2022-07-23T10:36:12;98235.94;;;31.16;71.34
36538;BME280;22545;48.892;9.138;2022-07-23T10:38:51;98239.28;;;30.95;66.74
36538;BME280;22545;48.892;9.138;2022-07-23T10:41:29;98237.00;;;30.39;62.81
36538;BME280;22545;48.892;9.138;2022-07-23T10:46:36;98231.03;;;30.45;61.12
36538;BME280;22545;48.892;9.138;2022-07-23T10:49:21;98241.38;;;30.69;59.75
36538;BME280;22545;48.892;9.138;2022-07-23T10:54:31;98228.13;;;29.85;65.67
36538;BME280;22545;48.892;9.138;2022-07-23T10:59:22;98231.03;;;29.36;66.60
36538;BME280;22545;48.892;9.138;2022-07-23T11:01:47;98227.13;;;29.32;67.17
36538;BME280;22545;48.892;9.138;2022-07-23T11:04:12;98226.41;;;29.38;68.98
36538;BME280;22545;48.892;9.138;2022-07-23T11:09:25;98227.78;;;29.17;77.34
36538;BME280;22545;48.892;9.138;2022-07-23T11:12:31;98225.38;;;29.07;70.87
36538;BME280;22545;48.892;9.138;2022-07-23T11:17:20;98223.16;;;29.59;61.61
36538;BME280;22545;48.892;9.138;2022-07-23T11:25:01;98226.16;;;28.19;68.55
36538;BME280;22545;48.892;9.138;2022-07-23T11:30:04;98216.56;;;28.18;73.41
36538;BME280;22545;48.892;9.138;2022-07-23T11:32:31;98213.09;;;28.09;75.91
36538;BME280;22545;48.892;9.138;2022-07-23T11:34:58;98207.28;;;27.81;81.11
36538;BME280;22545;48.892;9.138;2022-07-23T11:37:37;98215.84;;;27.91;81.81
36538;BME280;22545;48.892;9.138;2022-07-23T11:40:07;98215.41;;;28.12;83.16
36538;BME280;22545;48.892;9.138;2022-07-23T11:42:33;98213.88;;;28.51;85.07
36538;BME280;22545;48.892;9.138;2022-07-23T11:44:59;98220.34;;;28.56;84.06
36538;BME280;22545;48.892;9.138;2022-07-23T11:47:25;98209.63;;;28.25;78.12
36538;BME280;22545;48.892;9.138;2022-07-23T11:49:54;98207.91;;;27.91;77.09
36538;BME280;22545;48.892;9.138;2022-07-23T11:52:20;98214.59;;;28.03;78.28
36538;BME280;22545;48.892;9.138;2022-07-23T11:54:47;98221.31;;;27.81;79.05
36538;BME280;22545;48.892;9.138;2022-07-23T11:57:12;98196.72;;;27.81;82.98
36538;BME280;22545;48.892;9.138;2022-07-23T11:59:38;98209.06;;;27.72;84.83
36538;BME280;22545;48.892;9.138;2022-07-23T12:02:04;98200.81;;;27.83;84.60
36538;BME280;22545;48.892;9.138;2022-07-23T12:07:04;98210.59;;;28.24;77.48
36538;BME280;22545;48.892;9.138;2022-07-23T12:09:30;98197.34;;;27.83;78.09
36538;BME280;22545;48.892;9.138;2022-07-23T12:11:59;98204.84;;;28.04;80.29
36538;BME280;22545;48.892;9.138;2022-07-23T12:14:24;98197.06;;;28.02;81.53
36538;BME280;22545;48.892;9.138;2022-07-23T12:17:09;98197.22;;;28.17;77.60
36538;BME280;22545;48.892;9.138;2022-07-23T12:19:34;98189.28;;;28.34;79.30
36538;BME280;22545;48.892;9.138;2022-07-23T12:22:00;98184.47;;;28.46;78.43
36538;BME280;22545;48.892;9.138;2022-07-23T12:24:25;98195.91;;;28.21;78.21
36538;BME280;22545;48.892;9.138;2022-07-23T12:29:35;98194.56;;;28.50;80.91
36538;BME280;22545;48.892;9.138;2022-07-23T12:32:01;98189.22;;;28.58;82.77
36538;BME280;22545;48.892;9.138;2022-07-23T12:34:26;98190.25;;;28.49;77.95
36538;BME280;22545;48.892;9.138;2022-07-23T12:36:51;98185.44;;;28.53;79.54
36538;BME280;22545;48.892;9.138;2022-07-23T12:39:32;98202.69;;;28.16;80.76
36538;BME280;22545;48.892;9.138;2022-07-23T12:41:57;98189.94;;;28.03;83.29
36538;BME280;22545;48.892;9.138;2022-07-23T12:44:23;98194.84;;;27.73;89.42
36538;BME280;22545;48.892;9.138;2022-07-23T12:46:54;98198.16;;;27.83;90.93
36538;BME280;22545;48.892;9.138;2022-07-23T12:49:26;98196.19;;;27.77;90.21
36538;BME280;22545;48.892;9.138;2022-07-23T12:51:51;98200.31;;;27.71;91.86
36538;BME280;22545;48.892;9.138;2022-07-23T12:54:17;98201.00;;;27.90;84.55
36538;BME280;22545;48.892;9.138;2022-07-23T12:56:45;98198.56;;;28.21;80.09
36538;BME280;22545;48.892;9.138;2022-07-23T12:59:11;98195.22;;;28.44;77.43
36538;BME280;22545;48.892;9.138;2022-07-23T13:01:55;98206.47;;;28.63;70.91
36538;BME280;22545;48.892;9.138;2022-07-23T13:04:23;98204.63;;;28.47;72.29
36538;BME280;22545;48.892;9.138;2022-07-23T13:09:15;98202.81;;;28.47;73.00
36538;BME280;22545;48.892;9.138;2022-07-23T13:11:41;98204.13;;;28.76;78.94
36538;BME280;22545;48.892;9.138;2022-07-23T13:14:06;98197.78;;;28.85;74.31
36538;BME280;22545;48.892;9.138;2022-07-23T13:16:32;98208.28;;;28.46;78.91
36538;BME280;22545;48.892;9.138;2022-07-23T13:18:57;98203.66;;;28.48;81.27
36538;BME280;22545;48.892;9.138;2022-07-23T13:21:23;98199.84;;;28.25;81.31
36538;BME280;22545;48.892;9.138;2022-07-23T13:23:48;98206.66;;;28.12;81.09
36538;BME280;22545;48.892;9.138;2022-07-23T13:26:14;98202.84;;;28.06;81.43
36538;BME280;22545;48.892;9.138;2022-07-23T13:28:39;98196.91;;;28.20;81.91